Time;durP1;ratioP1;P1;durP2;ratioP2;P2;SDS_P1;SDS_P2;PMS_P1;PMS_P2;Temp;Humidity;BMP_temperature;BMP_pressure;BME280_temperature;BME280_humidity;BME280_pressure;Samples;Min_cycle;Max_cycle;Signal;HPM_P1;HPM_P2
2022/12/05 00:01:33;;;;;;;10.63;6.43;;;12.30;99.90;;;;;;5029873;28;20391;-75
2022/12/05 00:04:03;;;;;;;10.97;6.03;;;12.30;99.90;;;;;;5031472;28;20275;-75
2022/12/05 00:06:32;;;;;;;8.40;6.00;;;12.20;99.90;;;;;;5060131;28;20187;-75
2022/12/05 00:09:00;;;;;;;6.93;5.63;;;12.20;99.90;;;;;;5027976;28;20606;-75
2022/12/05 00:11:30;;;;;;;6.23;5.30;;;12.10;99.90;;;;;;5026431;28;20199;-75
2022/12/05 00:14:00;;;;;;;10.37;5.67;;;12.10;99.90;;;;;;5015646;28;20189;-75
2022/12/05 00:16:30;;;;;;;9.30;6.10;;;12.10;99.90;;;;;;5025395;28;20572;-75
2022/12/05 00:19:00;;;;;;;10.73;5.73;;;12.10;99.90;;;;;;5029341;28;20184;-75
2022/12/05 00:21:30;;;;;;;8.23;6.13;;;12.10;99.90;;;;;;5030075;28;20207;-75
2022/12/05 00:23:58;;;;;;;9.77;6.27;;;12.10;99.90;;;;;;5027637;28;20187;-76
2022/12/05 00:26:26;;;;;;;8.30;6.10;;;12.10;99.90;;;;;;5025469;28;20247;-76
2022/12/05 00:28:55;;;;;;;10.27;5.57;;;12.10;99.90;;;;;;5027772;28;20195;-76
2022/12/05 00:31:24;;;;;;;9.57;6.43;;;12.10;99.90;;;;;;5023323;28;20197;-76
2022/12/05 00:33:52;;;;;;;7.37;5.73;;;12.10;99.90;;;;;;5026304;28;20565;-76
2022/12/05 00:36:25;;;;;;;8.20;5.67;;;12.10;99.90;;;;;;5029927;28;20207;-76
2022/12/05 00:38:53;;;;;;;9.43;6.13;;;12.10;99.90;;;;;;5027126;28;20184;-76
2022/12/05 00:41:24;;;;;;;11.10;6.00;;;12.10;99.90;;;;;;5026046;28;20241;-76
2022/12/05 00:43:51;;;;;;;9.37;6.20;;;12.10;99.90;;;;;;5010165;28;20191;-76
2022/12/05 00:46:23;;;;;;;10.17;6.50;;;12.10;99.90;;;;;;5010141;28;20266;-76
2022/12/05 00:48:53;;;;;;;9.17;6.37;;;12.10;99.90;;;;;;5025834;28;20189;-76
2022/12/05 00:51:31;;;;;;;10.07;6.13;;;12.00;99.90;;;;;;5040805;28;20246;-76
2022/12/05 00:54:04;;;;;;;7.47;5.97;;;12.00;99.90;;;;;;5030146;28;20199;-76
2022/12/05 00:56:32;;;;;;;9.13;5.93;;;12.00;99.90;;;;;;5009327;28;20217;-76
2022/12/05 00:59:00;;;;;;;8.43;6.00;;;12.00;99.90;;;;;;5021757;28;20184;-75
2022/12/05 01:01:38;;;;;;;10.57;5.87;;;12.00;99.90;;;;;;5028177;28;20200;-75
2022/12/05 01:04:10;;;;;;;7.33;5.80;;;12.00;99.90;;;;;;5026522;28;20223;-76
2022/12/05 01:06:38;;;;;;;7.27;5.93;;;11.90;99.90;;;;;;5025305;28;20878;-75
2022/12/05 01:09:06;;;;;;;8.53;5.60;;;12.00;99.90;;;;;;5024224;28;20203;-76
2022/12/05 01:11:33;;;;;;;8.60;6.60;;;12.00;99.90;;;;;;5012583;28;20191;-76
2022/12/05 01:14:00;;;;;;;7.83;5.43;;;12.00;99.90;;;;;;5038810;28;20197;-76
2022/12/05 01:16:34;;;;;;;8.13;6.37;;;12.00;99.90;;;;;;5026858;28;20258;-76
2022/12/05 01:19:07;;;;;;;8.67;6.17;;;12.00;99.90;;;;;;5025428;28;20184;-76
2022/12/05 01:21:34;;;;;;;7.77;6.07;;;12.00;99.90;;;;;;5027042;28;20200;-75
2022/12/05 01:24:00;;;;;;;6.77;6.07;;;12.00;99.90;;;;;;5020084;28;20195;-76
2022/12/05 01:26:27;;;;;;;8.00;6.20;;;12.00;99.90;;;;;;5023539;28;20278;-75
2022/12/05 01:28:54;;;;;;;6.80;5.80;;;12.00;99.90;;;;;;5022221;28;20219;-76
2022/12/05 01:31:34;;;;;;;9.70;6.37;;;12.00;99.90;;;;;;5028000;28;20654;-76
2022/12/05 01:34:05;;;;;;;9.03;6.20;;;12.10;99.90;;;;;;5043175;28;20298;-76
2022/12/05 01:36:31;;;;;;;8.20;5.83;;;12.10;99.90;;;;;;4998543;28;20868;-76
2022/12/05 01:38:59;;;;;;;9.67;6.10;;;12.10;99.90;;;;;;5001796;28;20215;-76
2022/12/05 01:41:36;;;;;;;8.17;6.10;;;12.10;99.90;;;;;;5024855;28;20803;-76
2022/12/05 01:44:11;;;;;;;7.47;6.10;;;12.10;99.90;;;;;;5039599;28;20180;-75
2022/12/05 01:46:50;;;;;;;7.07;6.00;;;12.10;99.90;;;;;;5018895;28;20185;-76
2022/12/05 01:49:26;;;;;;;7.63;6.57;;;12.10;99.90;;;;;;5022747;28;20180;-76
2022/12/05 01:52:04;;;;;;;7.53;5.20;;;12.10;99.90;;;;;;5025194;28;20198;-76
2022/12/05 01:54:31;;;;;;;8.93;5.97;;;12.10;99.90;;;;;;5026041;28;20290;-76
2022/12/05 01:57:03;;;;;;;6.67;5.77;;;12.00;99.90;;;;;;5024568;28;20204;-76
2022/12/05 01:59:37;;;;;;;8.87;5.90;;;12.10;99.90;;;;;;5026167;28;20192;-75
2022/12/05 02:02:05;;;;;;;8.23;6.00;;;12.10;99.90;;;;;;5045352;28;20603;-76
2022/12/05 02:04:40;;;;;;;7.07;5.97;;;12.10;99.90;;;;;;5042652;28;20180;-76
2022/12/05 02:07:07;;;;;;;7.97;5.83;;;12.10;99.90;;;;;;5018294;28;20708;-76
2022/12/05 02:09:35;;;;;;;8.60;5.70;;;12.10;99.90;;;;;;5026783;28;20184;-76
2022/12/05 02:12:04;;;;;;;8.63;6.17;;;12.10;99.90;;;;;;5021502;28;20250;-76
2022/12/05 02:14:48;;;;;;;8.40;5.87;;;12.10;99.90;;;;;;5024113;28;20255;-76
2022/12/05 02:17:52;;;;;;;10.87;6.33;;;12.10;99.90;;;;;;5042710;28;20673;-76
2022/12/05 02:21:02;;;;;;;9.67;6.23;;;12.10;99.90;;;;;;5018448;28;20655;-76
2022/12/05 02:23:43;;;;;;;7.50;5.97;;;12.10;99.90;;;;;;5009798;28;20184;-76
2022/12/05 02:26:37;;;;;;;8.70;6.50;;;12.10;99.90;;;;;;5025804;28;20188;-76
2022/12/05 02:29:58;;;;;;;9.30;6.17;;;12.10;99.90;;;;;;5006574;28;20741;-75
2022/12/05 02:33:23;;;;;;;10.50;6.50;;;12.10;99.90;;;;;;5016072;28;20326;-75
2022/12/05 02:36:28;;;;;;;9.10;6.43;;;12.10;99.90;;;;;;5026136;28;20184;-76
2022/12/05 02:39:25;;;;;;;8.23;6.10;;;12.10;99.90;;;;;;5052527;28;20241;-75
2022/12/05 02:42:11;;;;;;;7.40;6.17;;;12.10;99.90;;;;;;5027280;28;20275;-75
2022/12/05 02:44:56;;;;;;;8.63;6.70;;;12.10;99.90;;;;;;5023476;28;20522;-75
2022/12/05 02:47:28;;;;;;;9.37;6.67;;;12.10;99.90;;;;;;5019923;28;20251;-75
2022/12/05 02:49:56;;;;;;;7.07;6.37;;;12.10;99.90;;;;;;5025262;28;20199;-76
2022/12/05 02:52:26;;;;;;;7.37;5.97;;;12.10;99.90;;;;;;5024614;28;20282;-75
2022/12/05 02:54:55;;;;;;;11.73;7.30;;;12.10;99.90;;;;;;5004062;28;20220;-75
2022/12/05 02:57:25;;;;;;;8.37;6.80;;;12.10;99.90;;;;;;5057950;28;20196;-76
2022/12/05 02:59:53;;;;;;;8.53;6.33;;;12.00;99.90;;;;;;5017457;28;20806;-75
2022/12/05 03:02:33;;;;;;;8.13;6.80;;;12.10;99.90;;;;;;5018140;28;20184;-76
2022/12/05 03:05:42;;;;;;;9.37;6.47;;;12.10;99.90;;;;;;5028376;28;20187;-76
2022/12/05 03:08:16;;;;;;;12.33;7.43;;;12.10;99.90;;;;;;5040738;28;20261;-76
2022/12/05 03:10:46;;;;;;;8.37;6.77;;;12.10;99.90;;;;;;5027938;28;20619;-76
2022/12/05 03:13:32;;;;;;;9.60;7.23;;;12.10;99.90;;;;;;5027631;28;20226;-76
2022/12/05 03:16:17;;;;;;;11.20;6.93;;;12.10;99.90;;;;;;5023948;28;20206;-75
2022/12/05 03:18:54;;;;;;;11.93;6.90;;;12.10;99.90;;;;;;5028534;28;20180;-75
2022/12/05 03:22:12;;;;;;;8.60;6.73;;;12.10;99.90;;;;;;5029695;28;20610;-76
2022/12/05 03:24:40;;;;;;;8.73;6.93;;;12.10;99.90;;;;;;5039593;28;20230;-75
2022/12/05 03:27:34;;;;;;;10.33;7.20;;;12.10;99.90;;;;;;5024376;28;20253;-76
2022/12/05 03:30:19;;;;;;;9.00;6.90;;;12.10;99.90;;;;;;5041541;28;20195;-76
2022/12/05 03:33:12;;;;;;;8.97;6.60;;;12.10;99.90;;;;;;5016484;28;20641;-75
2022/12/05 03:36:02;;;;;;;9.23;6.63;;;12.10;99.90;;;;;;5027997;28;20208;-75
2022/12/05 03:38:47;;;;;;;10.90;6.63;;;12.10;99.90;;;;;;5030048;28;20195;-76
2022/12/05 03:41:44;;;;;;;10.73;6.70;;;12.10;99.90;;;;;;5029100;28;20196;-76
2022/12/05 03:45:02;;;;;;;8.30;6.53;;;12.00;99.90;;;;;;4992139;28;20798;-75
2022/12/05 03:47:56;;;;;;;9.03;7.33;;;12.10;99.90;;;;;;5027962;28;20215;-76
2022/12/05 03:50:27;;;;;;;11.50;7.10;;;12.10;99.90;;;;;;5028619;28;20731;-76
2022/12/05 03:53:07;;;;;;;9.43;7.13;;;12.10;99.90;;;;;;5035368;28;20327;-76
2022/12/05 03:55:39;;;;;;;8.57;6.97;;;12.10;99.90;;;;;;5028843;28;20258;-75
2022/12/05 03:58:20;;;;;;;8.60;6.67;;;12.10;99.90;;;;;;5023083;28;20189;-76
2022/12/05 04:00:55;;;;;;;9.53;7.03;;;12.10;99.90;;;;;;5011346;28;20238;-76
2022/12/05 04:03:45;;;;;;;8.67;7.00;;;12.10;99.90;;;;;;5043704;28;20179;-75
2022/12/05 04:06:32;;;;;;;8.73;7.50;;;12.10;99.90;;;;;;5034258;28;20656;-75
2022/12/05 04:09:15;;;;;;;12.63;7.60;;;12.10;99.90;;;;;;5023712;28;20247;-75
2022/12/05 04:11:50;;;;;;;11.40;7.27;;;12.10;99.90;;;;;;5028805;28;20231;-76
2022/12/05 04:14:30;;;;;;;8.87;7.30;;;12.10;99.90;;;;;;5006854;28;20188;-76
2022/12/05 04:17:21;;;;;;;10.13;7.83;;;12.10;99.90;;;;;;5026631;28;20301;-76
2022/12/05 04:22:44;;;;;;;9.03;7.97;;;12.10;99.90;;;;;;5027803;28;20192;-75
2022/12/05 04:25:32;;;;;;;9.93;7.13;;;12.10;99.90;;;;;;5032246;28;20319;-75
2022/12/05 04:28:26;;;;;;;10.33;7.67;;;12.10;99.90;;;;;;5024796;28;20203;-76
2022/12/05 04:31:05;;;;;;;9.17;6.90;;;12.10;99.90;;;;;;5019647;28;20219;-76
2022/12/05 04:33:43;;;;;;;10.40;7.00;;;12.20;99.90;;;;;;5058847;28;20188;-76
2022/12/05 04:36:30;;;;;;;7.90;6.57;;;12.10;99.90;;;;;;5043336;28;20203;-75
2022/12/05 04:39:36;;;;;;;10.70;6.97;;;12.10;99.90;;;;;;5030957;28;20183;-74
2022/12/05 04:42:14;;;;;;;7.60;6.57;;;12.10;99.90;;;;;;5024855;28;20196;-74
2022/12/05 04:44:53;;;;;;;9.10;6.30;;;12.10;99.90;;;;;;5009541;28;20223;-75
2022/12/05 04:47:27;;;;;;;7.47;6.13;;;12.10;99.90;;;;;;5016791;28;20282;-75
2022/12/05 04:49:55;;;;;;;6.90;6.20;;;12.10;99.90;;;;;;5029334;28;20184;-75
2022/12/05 04:52:23;;;;;;;7.90;6.47;;;12.00;99.90;;;;;;5029340;28;20553;-75
2022/12/05 04:55:11;;;;;;;11.07;6.90;;;12.10;99.90;;;;;;5028211;28;20668;-74
2022/12/05 04:57:52;;;;;;;7.73;5.93;;;12.00;99.90;;;;;;5026474;28;20580;-75
2022/12/05 05:00:19;;;;;;;9.13;6.50;;;12.10;99.90;;;;;;5029316;28;20177;-75
2022/12/05 05:03:05;;;;;;;9.77;6.20;;;12.00;99.90;;;;;;5022834;28;20300;-75
2022/12/05 05:05:36;;;;;;;9.77;6.17;;;12.00;99.90;;;;;;5025793;28;20196;-75
2022/12/05 05:08:04;;;;;;;8.23;5.77;;;12.00;99.90;;;;;;5030209;28;20191;-76
2022/12/05 05:11:06;;;;;;;7.63;6.40;;;12.00;99.90;;;;;;5022327;28;20204;-76
2022/12/05 05:13:32;;;;;;;7.83;6.53;;;12.00;99.90;;;;;;5013224;28;20195;-76
2022/12/05 05:15:58;;;;;;;7.00;6.00;;;12.10;99.90;;;;;;5011053;28;20202;-75
2022/12/05 05:18:26;;;;;;;7.97;6.57;;;12.10;99.90;;;;;;5026299;28;20601;-75
2022/12/05 05:20:52;;;;;;;7.00;6.23;;;12.10;99.90;;;;;;5033965;28;20282;-75
2022/12/05 05:23:19;;;;;;;8.17;5.63;;;12.10;99.90;;;;;;5027468;28;20184;-75
2022/12/05 05:25:53;;;;;;;6.50;5.90;;;12.10;99.90;;;;;;5016469;28;20181;-75
2022/12/05 05:28:20;;;;;;;9.10;5.70;;;12.10;99.90;;;;;;5024223;28;20184;-75
2022/12/05 05:30:47;;;;;;;8.80;5.87;;;12.10;99.90;;;;;;5026369;28;20181;-75
2022/12/05 05:33:14;;;;;;;6.70;5.97;;;12.00;99.90;;;;;;5028660;28;20176;-75
2022/12/05 05:35:40;;;;;;;7.40;6.20;;;12.00;99.90;;;;;;5021827;28;20177;-75
2022/12/05 05:38:07;;;;;;;8.97;5.70;;;12.00;99.90;;;;;;5023080;28;20176;-75
2022/12/05 05:40:36;;;;;;;6.60;5.80;;;12.00;99.90;;;;;;5021385;28;20193;-75
2022/12/05 05:43:03;;;;;;;8.40;6.10;;;12.00;99.90;;;;;;5026136;28;20188;-75
2022/12/05 05:45:29;;;;;;;8.77;5.80;;;12.00;99.90;;;;;;5018374;28;20185;-75
2022/12/05 05:47:56;;;;;;;7.70;6.20;;;12.00;99.90;;;;;;5026444;28;20550;-75
2022/12/05 05:50:23;;;;;;;8.10;6.23;;;12.10;99.90;;;;;;5026284;28;20200;-75
2022/12/05 05:52:49;;;;;;;7.20;5.63;;;12.10;99.90;;;;;;5026877;28;20183;-75
2022/12/05 05:55:16;;;;;;;7.33;5.30;;;12.10;99.90;;;;;;5026417;28;20203;-75
2022/12/05 05:57:43;;;;;;;7.80;6.17;;;12.10;99.90;;;;;;5026108;28;20212;-74
2022/12/05 06:00:10;;;;;;;8.43;5.80;;;12.10;99.90;;;;;;5025153;28;20215;-74
2022/12/05 06:02:38;;;;;;;6.67;5.63;;;12.20;99.90;;;;;;5016115;28;20183;-75
2022/12/05 06:05:05;;;;;;;8.93;5.67;;;12.20;99.90;;;;;;5031913;28;20171;-75
2022/12/05 06:07:31;;;;;;;8.10;5.77;;;12.20;99.90;;;;;;5025854;28;20208;-75
2022/12/05 06:09:58;;;;;;;6.03;5.40;;;12.30;99.90;;;;;;5026698;28;20303;-75
2022/12/05 06:12:24;;;;;;;6.30;5.40;;;12.30;99.90;;;;;;5029000;28;20196;-76
2022/12/05 06:14:51;;;;;;;6.87;6.00;;;12.30;99.90;;;;;;5025314;28;20188;-76
2022/12/05 06:17:18;;;;;;;9.27;6.03;;;12.40;99.90;;;;;;5027337;28;20221;-75
2022/12/05 06:19:44;;;;;;;8.23;5.67;;;12.50;99.90;;;;;;5036815;28;20188;-75
2022/12/05 06:22:10;;;;;;;7.60;5.77;;;12.50;99.90;;;;;;5027599;28;20182;-76
2022/12/05 06:24:37;;;;;;;7.03;5.50;;;12.60;99.90;;;;;;5025832;28;20184;-76
2022/12/05 06:27:04;;;;;;;7.87;6.10;;;12.60;99.90;;;;;;5024409;28;20192;-75
2022/12/05 06:29:30;;;;;;;7.07;5.60;;;12.70;99.90;;;;;;5006202;28;20819;-75
2022/12/05 06:31:56;;;;;;;5.97;5.10;;;12.70;99.90;;;;;;5031549;28;20565;-76
2022/12/05 06:34:22;;;;;;;7.47;5.47;;;12.70;99.90;;;;;;5025071;28;20275;-76
2022/12/05 06:36:49;;;;;;;8.67;5.37;;;12.80;99.90;;;;;;5006677;28;20212;-76
2022/12/05 06:39:15;;;;;;;7.23;5.73;;;12.80;99.90;;;;;;5007299;28;20181;-75
2022/12/05 06:41:41;;;;;;;7.13;5.50;;;12.90;99.90;;;;;;5018970;28;20211;-75
2022/12/05 06:44:09;;;;;;;7.43;5.57;;;12.90;99.90;;;;;;5025194;28;20180;-75
2022/12/05 06:46:35;;;;;;;7.73;5.33;;;13.00;99.90;;;;;;5033761;28;20180;-76
2022/12/05 06:49:02;;;;;;;9.00;5.63;;;13.00;99.90;;;;;;5022478;28;20211;-75
2022/12/05 06:51:30;;;;;;;6.43;5.47;;;13.10;99.90;;;;;;5026933;28;20206;-76
2022/12/05 06:53:56;;;;;;;9.00;6.00;;;13.10;99.90;;;;;;5043082;28;20184;-76
2022/12/05 06:56:23;;;;;;;6.40;5.43;;;13.10;99.90;;;;;;5023669;28;20511;-76
2022/12/05 06:58:52;;;;;;;6.30;5.70;;;13.20;99.90;;;;;;5020030;28;20589;-76
2022/12/05 07:01:40;;;;;;;7.43;6.27;;;13.20;99.90;;;;;;5024627;28;20242;-76
2022/12/05 07:04:19;;;;;;;9.93;6.27;;;13.30;99.90;;;;;;5022973;28;20190;-76
2022/12/05 07:06:47;;;;;;;6.97;6.27;;;13.30;99.90;;;;;;5040452;28;20695;-76
2022/12/05 07:09:15;;;;;;;11.50;8.40;;;13.40;99.90;;;;;;5023331;28;20207;-76
2022/12/05 07:11:41;;;;;;;8.80;7.90;;;13.40;99.90;;;;;;5008514;28;20192;-76
2022/12/05 07:14:10;;;;;;;10.40;7.97;;;13.50;99.90;;;;;;5017139;28;20868;-76
2022/12/05 07:16:36;;;;;;;9.70;8.00;;;13.50;99.90;;;;;;5022436;28;20691;-76
2022/12/05 07:19:03;;;;;;;11.73;7.87;;;13.60;99.90;;;;;;5045177;28;20181;-75
2022/12/05 07:21:30;;;;;;;7.53;6.47;;;13.60;99.90;;;;;;5025228;28;20189;-76
2022/12/05 07:23:56;;;;;;;13.47;6.90;;;13.70;99.90;;;;;;5052065;28;20251;-76
2022/12/05 07:26:24;;;;;;;11.47;7.50;;;13.90;99.90;;;;;;5042693;28;20199;-76
2022/12/05 07:28:51;;;;;;;10.23;6.90;;;14.20;99.90;;;;;;5023355;28;20189;-76
2022/12/05 07:31:21;;;;;;;10.27;6.50;;;14.30;99.90;;;;;;5004079;28;20189;-76
2022/12/05 07:33:49;;;;;;;9.67;6.53;;;14.20;99.90;;;;;;5030476;28;20234;-75
2022/12/05 07:36:21;;;;;;;9.03;6.37;;;14.20;99.90;;;;;;5012665;28;20259;-75
2022/12/05 07:38:47;;;;;;;11.10;6.20;;;14.20;99.90;;;;;;5042397;28;20184;-75
2022/12/05 07:41:25;;;;;;;8.73;6.00;;;14.20;99.90;;;;;;5016520;28;20247;-75
2022/12/05 07:43:55;;;;;;;9.13;6.03;;;14.20;99.90;;;;;;5029136;28;20275;-76
2022/12/05 07:46:23;;;;;;;9.43;6.40;;;14.20;99.90;;;;;;5039432;28;20189;-76
2022/12/05 07:48:50;;;;;;;9.37;6.70;;;14.20;99.90;;;;;;5023440;28;20188;-76
2022/12/05 07:51:17;;;;;;;7.60;6.03;;;14.20;99.90;;;;;;5025819;28;20256;-76
2022/12/05 07:53:45;;;;;;;7.40;5.67;;;14.30;99.90;;;;;;5033484;28;20677;-76
2022/12/05 07:56:17;;;;;;;10.10;6.10;;;14.30;99.90;;;;;;5043353;28;20568;-76
2022/12/05 07:58:47;;;;;;;9.13;5.90;;;14.40;99.90;;;;;;5023240;28;20203;-76
2022/12/05 08:01:20;;;;;;;5.93;5.03;;;14.50;99.90;;;;;;5003823;28;20278;-76
2022/12/05 08:03:48;;;;;;;14.40;6.40;;;14.60;99.90;;;;;;5009221;28;20237;-76
2022/12/05 08:06:21;;;;;;;6.80;5.50;;;14.60;99.90;;;;;;5032373;28;20215;-76
2022/12/05 08:08:49;;;;;;;6.67;4.80;;;14.60;99.90;;;;;;5028276;28;20535;-76
2022/12/05 08:11:36;;;;;;;7.30;4.77;;;14.70;99.90;;;;;;5040675;28;20926;-75
2022/12/05 08:14:05;;;;;;;9.73;4.47;;;14.80;99.90;;;;;;5041664;28;20195;-76
2022/12/05 08:16:32;;;;;;;4.80;4.07;;;14.80;99.90;;;;;;5023308;28;20231;-76
2022/12/05 08:19:06;;;;;;;6.63;4.50;;;14.80;99.90;;;;;;5009977;28;20223;-76
2022/12/05 08:21:33;;;;;;;7.90;4.70;;;14.90;99.90;;;;;;5019900;28;20565;-75
2022/12/05 08:24:00;;;;;;;6.20;4.30;;;15.00;99.90;;;;;;5035084;28;20262;-75
2022/12/05 08:26:30;;;;;;;7.70;3.80;;;15.00;99.90;;;;;;5021787;28;20562;-76
2022/12/05 08:29:00;;;;;;;7.33;4.20;;;15.10;99.90;;;;;;5019521;28;20191;-76
2022/12/05 08:31:29;;;;;;;7.40;4.30;;;15.10;99.90;;;;;;5028551;28;20666;-76
2022/12/05 08:33:58;;;;;;;6.27;4.20;;;15.10;99.90;;;;;;5017115;28;20196;-75
2022/12/05 08:36:26;;;;;;;4.70;3.67;;;15.10;99.90;;;;;;5022070;28;20789;-76
2022/12/05 08:39:03;;;;;;;7.00;3.70;;;15.10;99.90;;;;;;5028076;28;20242;-75
2022/12/05 08:41:30;;;;;;;6.73;3.80;;;15.20;99.90;;;;;;5024135;28;20275;-75
2022/12/05 08:44:04;;;;;;;5.13;3.60;;;15.20;99.90;;;;;;5028793;28;20184;-75
2022/12/05 08:46:34;;;;;;;9.10;3.50;;;15.30;99.90;;;;;;5023797;28;20234;-76
2022/12/05 08:49:01;;;;;;;6.53;3.33;;;15.20;99.90;;;;;;5028280;28;20191;-75
2022/12/05 08:51:27;;;;;;;5.77;3.20;;;15.30;99.90;;;;;;5035357;28;20192;-75
2022/12/05 08:53:55;;;;;;;6.50;3.30;;;15.30;99.90;;;;;;5039574;28;20200;-77
2022/12/05 08:56:21;;;;;;;6.20;3.27;;;15.30;99.90;;;;;;5024717;28;20219;-75
2022/12/05 08:58:48;;;;;;;5.67;3.23;;;15.30;99.90;;;;;;5025599;28;20343;-75
2022/12/05 09:01:19;;;;;;;4.27;3.07;;;15.30;99.90;;;;;;5025213;28;20193;-77
2022/12/05 09:03:49;;;;;;;6.20;3.20;;;15.30;99.90;;;;;;5028876;28;20628;-75
2022/12/05 09:06:21;;;;;;;5.90;2.67;;;15.40;99.90;;;;;;5022848;28;20188;-75
2022/12/05 09:08:51;;;;;;;6.10;3.17;;;15.40;99.90;;;;;;5021043;28;20207;-75
2022/12/05 09:11:22;;;;;;;5.03;2.93;;;15.50;99.90;;;;;;5027303;28;20223;-75
2022/12/05 09:13:51;;;;;;;4.10;2.63;;;15.60;99.90;;;;;;5026512;28;20716;-75
2022/12/05 09:16:23;;;;;;;5.23;2.70;;;15.60;99.90;;;;;;5027053;28;20250;-75
2022/12/05 09:18:51;;;;;;;3.70;2.73;;;15.60;99.90;;;;;;5024994;28;20211;-74
2022/12/05 09:21:22;;;;;;;4.03;2.50;;;15.60;99.90;;;;;;5012809;28;20188;-75
2022/12/05 09:23:50;;;;;;;5.50;2.60;;;15.70;99.90;;;;;;5018371;28;20289;-75
2022/12/05 09:26:23;;;;;;;4.03;2.70;;;15.70;99.90;;;;;;5023968;28;20226;-76
2022/12/05 09:28:50;;;;;;;4.30;2.40;;;15.70;99.90;;;;;;5017795;28;20188;-75
2022/12/05 09:31:21;;;;;;;6.47;2.67;;;15.70;99.90;;;;;;5001471;28;20299;-76
2022/12/05 09:33:50;;;;;;;3.60;2.80;;;15.80;99.90;;;;;;5016947;28;20200;-76
2022/12/05 09:36:24;;;;;;;6.30;3.00;;;15.90;99.90;;;;;;5015462;28;20208;-75
2022/12/05 09:38:53;;;;;;;7.93;3.17;;;15.90;99.90;;;;;;5018283;28;20188;-75
2022/12/05 09:42:07;;;;;;;5.40;3.20;;;15.90;99.90;;;;;;5027276;28;20192;-75
2022/12/05 09:45:22;;;;;;;4.37;2.90;;;16.00;99.90;;;;;;5019339;28;20203;-75
2022/12/05 09:48:19;;;;;;;5.93;3.17;;;16.10;99.90;;;;;;5014526;28;20287;-75
2022/12/05 09:51:00;;;;;;;6.50;3.20;;;16.10;99.90;;;;;;5014737;28;20189;-75
2022/12/05 09:53:37;;;;;;;6.83;2.97;;;16.10;99.90;;;;;;5003853;28;20241;-75
2022/12/05 09:56:26;;;;;;;9.47;3.20;;;16.20;99.90;;;;;;5022711;28;20552;-76
2022/12/05 09:58:55;;;;;;;6.97;3.17;;;16.30;99.90;;;;;;5025510;28;20196;-76
2022/12/05 10:02:01;;;;;;;6.70;3.10;;;16.30;99.90;;;;;;5026631;28;20207;-75
2022/12/05 10:05:08;;;;;;;8.67;3.40;;;16.20;99.90;;;;;;5021257;28;20193;-76
2022/12/05 10:07:47;;;;;;;4.07;2.80;;;16.20;99.90;;;;;;5019040;28;20215;-76
2022/12/05 10:10:53;;;;;;;5.20;3.10;;;16.40;99.90;;;;;;5009134;28;20637;-75
2022/12/05 10:13:28;;;;;;;4.93;3.10;;;16.50;99.90;;;;;;5019631;28;20668;-76
2022/12/05 10:16:09;;;;;;;5.40;2.93;;;16.40;99.90;;;;;;5020477;28;20234;-75
2022/12/05 10:18:54;;;;;;;4.60;3.00;;;16.40;99.90;;;;;;5019458;28;20278;-76
2022/12/05 10:21:57;;;;;;;5.37;3.30;;;16.50;99.90;;;;;;5023596;28;20192;-75
2022/12/05 10:24:44;;;;;;;5.70;2.90;;;16.50;99.90;;;;;;5002622;28;20209;-76
2022/12/05 10:27:29;;;;;;;4.07;2.90;;;16.50;99.90;;;;;;5024519;28;20553;-77
2022/12/05 10:30:15;;;;;;;4.73;2.90;;;16.50;99.90;;;;;;5040126;28;20184;-76
2022/12/05 10:33:04;;;;;;;4.70;3.00;;;16.60;99.90;;;;;;5029591;28;20188;-76
2022/12/05 10:35:38;;;;;;;6.43;3.00;;;16.70;99.90;;;;;;5026875;28;20283;-77
2022/12/05 10:38:16;;;;;;;7.70;3.13;;;16.80;99.90;;;;;;5025049;28;20689;-76
2022/12/05 10:40:52;;;;;;;6.07;3.37;;;16.90;99.90;;;;;;5023110;28;20230;-76
2022/12/05 10:43:27;;;;;;;5.33;2.80;;;17.00;99.90;;;;;;5041903;28;20211;-76
2022/12/05 10:45:54;;;;;;;4.63;2.97;;;17.10;99.90;;;;;;5022708;28;20199;-76
2022/12/05 10:48:23;;;;;;;7.27;3.10;;;17.20;99.90;;;;;;5036427;28;20211;-76
2022/12/05 10:50:53;;;;;;;3.87;3.10;;;17.20;99.90;;;;;;5024569;28;20275;-76
2022/12/05 10:53:50;;;;;;;4.30;2.90;;;17.20;99.90;;;;;;5025222;28;20200;-74
2022/12/05 10:56:48;;;;;;;4.07;3.13;;;17.30;99.90;;;;;;5013835;28;20217;-75
2022/12/05 10:59:19;;;;;;;3.40;2.53;;;17.60;99.90;;;;;;5018103;28;20669;-76
2022/12/05 11:01:57;;;;;;;3.75;2.58;;;17.70;99.90;;;;;;5002375;28;20629;-75
2022/12/05 11:04:40;;;;;;;3.13;2.72;;;17.80;99.90;;;;;;5018706;28;20239;-76
2022/12/05 11:07:06;;;;;;;3.92;2.40;;;17.90;99.90;;;;;;5040633;28;20187;-76
2022/12/05 11:09:37;;;;;;;4.15;2.58;;;17.90;99.90;;;;;;5010222;28;20220;-76
2022/12/05 11:12:35;;;;;;;4.47;2.53;;;17.90;99.90;;;;;;5025519;28;20197;-76
2022/12/05 11:15:15;;;;;;;4.68;2.40;;;17.90;99.90;;;;;;5009690;28;20197;-76
2022/12/05 11:17:42;;;;;;;4.53;2.65;;;17.90;99.90;;;;;;5036759;28;20224;-76
2022/12/05 11:20:17;;;;;;;5.03;2.78;;;17.80;99.90;;;;;;5020029;28;20246;-76
2022/12/05 11:22:53;;;;;;;4.72;2.75;;;17.80;99.90;;;;;;5022209;28;20238;-76
2022/12/05 11:25:33;;;;;;;7.03;3.00;;;17.70;99.90;;;;;;5019474;28;20185;-76
2022/12/05 11:28:16;;;;;;;5.00;2.80;;;17.70;99.90;;;;;;5024409;28;20196;-76
2022/12/05 11:31:11;;;;;;;5.63;2.65;;;17.60;99.90;;;;;;5015399;28;20184;-76
2022/12/05 11:33:40;;;;;;;5.07;2.83;;;17.50;99.90;;;;;;4999345;28;20203;-76
2022/12/05 11:36:28;;;;;;;4.90;3.17;;;17.50;99.90;;;;;;5025531;28;20196;-76
2022/12/05 11:38:57;;;;;;;4.40;2.80;;;17.50;99.90;;;;;;5012078;28;20322;-75
2022/12/05 11:41:38;;;;;;;5.63;3.10;;;17.50;99.90;;;;;;5029356;28;20188;-75
2022/12/05 11:44:31;;;;;;;3.70;3.30;;;17.50;99.90;;;;;;5032261;28;20280;-76
2022/12/05 11:47:43;;;;;;;4.33;3.23;;;17.50;99.90;;;;;;5022297;28;20184;-75
2022/12/05 11:51:24;;;;;;;4.60;3.40;;;17.50;99.90;;;;;;5032844;28;20212;-76
2022/12/05 11:54:18;;;;;;;5.00;3.53;;;17.50;99.90;;;;;;4968511;28;20222;-78
2022/12/05 11:56:55;;;;;;;6.00;3.40;;;17.60;99.90;;;;;;4961163;28;20301;-77
2022/12/05 12:00:00;;;;;;;9.00;3.13;;;17.50;99.90;;;;;;5022204;28;20287;-76
2022/12/05 12:03:03;;;;;;;5.23;3.20;;;17.50;99.90;;;;;;5031243;28;20190;-76
2022/12/05 12:06:20;;;;;;;5.67;3.17;;;17.50;99.90;;;;;;4998400;28;20215;-76
2022/12/05 12:09:25;;;;;;;4.90;3.53;;;17.60;99.90;;;;;;4984331;28;20240;-76
2022/12/05 12:12:58;;;;;;;6.53;3.57;;;17.60;99.90;;;;;;5011936;28;20192;-76
2022/12/05 12:16:20;;;;;;;4.60;3.47;;;17.60;99.90;;;;;;4940521;28;20187;-76
2022/12/05 12:19:09;;;;;;;5.83;3.60;;;17.60;99.90;;;;;;5013872;28;20203;-76
2022/12/05 12:21:51;;;;;;;7.17;3.67;;;17.50;99.90;;;;;;5033593;28;20850;-76
2022/12/05 12:24:27;;;;;;;5.07;3.53;;;17.40;99.90;;;;;;5024187;28;20556;-76
2022/12/05 12:27:41;;;;;;;6.73;3.73;;;17.40;99.90;;;;;;5024466;28;20196;-76
2022/12/05 12:30:55;;;;;;;5.60;3.60;;;17.30;99.90;;;;;;5002227;28;21889;-76
2022/12/05 12:33:53;;;;;;;4.53;3.43;;;17.30;99.90;;;;;;5020713;28;22050;-76
2022/12/05 12:36:52;;;;;;;4.57;3.53;;;17.30;99.90;;;;;;4996196;28;20223;-76
2022/12/05 12:39:42;;;;;;;5.43;4.13;;;17.30;99.90;;;;;;5016559;28;20218;-76
2022/12/05 12:42:26;;;;;;;5.77;4.00;;;17.20;99.90;;;;;;5028136;28;20237;-76
2022/12/05 12:45:04;;;;;;;5.23;3.80;;;17.10;99.90;;;;;;5047075;28;20238;-76
2022/12/05 12:48:25;;;;;;;5.57;4.30;;;17.00;99.90;;;;;;5036617;28;20188;-76
2022/12/05 12:50:57;;;;;;;4.83;3.93;;;16.90;99.90;;;;;;5012658;28;20740;-76
2022/12/05 12:53:54;;;;;;;5.70;4.10;;;16.90;99.90;;;;;;5037641;28;20220;-76
2022/12/05 12:56:49;;;;;;;5.27;4.13;;;16.90;99.90;;;;;;5008642;28;20208;-76
2022/12/05 12:59:52;;;;;;;4.80;4.30;;;17.00;99.90;;;;;;5022874;28;20685;-76
2022/12/05 13:02:25;;;;;;;7.43;4.33;;;17.00;99.90;;;;;;5023596;28;20657;-76
2022/12/05 13:05:32;;;;;;;4.80;3.70;;;16.90;99.90;;;;;;5008740;28;20184;-76
2022/12/05 13:08:39;;;;;;;4.63;4.23;;;16.90;99.90;;;;;;5013125;28;20192;-76
2022/12/05 13:11:11;;;;;;;5.80;4.03;;;16.80;99.90;;;;;;5026380;28;20191;-76
2022/12/05 13:13:47;;;;;;;8.40;4.97;;;16.70;99.90;;;;;;5012588;28;20303;-76
2022/12/05 13:16:29;;;;;;;7.27;4.57;;;16.60;99.90;;;;;;5011762;28;20278;-76
2022/12/05 13:18:59;;;;;;;6.77;5.07;;;16.60;99.90;;;;;;5033307;28;20200;-76
2022/12/05 13:21:27;;;;;;;5.30;4.30;;;16.60;99.90;;;;;;5021781;28;20192;-76
2022/12/05 13:24:02;;;;;;;8.00;4.93;;;16.60;99.90;;;;;;5020149;28;20302;-76
2022/12/05 13:26:33;;;;;;;7.93;5.30;;;16.60;99.90;;;;;;5025741;28;20644;-76
2022/12/05 13:29:03;;;;;;;6.77;5.17;;;16.60;99.90;;;;;;5028490;28;20206;-76
2022/12/05 13:31:43;;;;;;;5.83;5.00;;;16.60;99.90;;;;;;5014087;28;20337;-76
2022/12/05 13:34:34;;;;;;;6.60;5.20;;;16.60;99.90;;;;;;5026227;28;20767;-76
2022/12/05 13:43:25;;;;;;;7.77;4.70;;;16.50;99.90;;;;;;5023155;28;20660;-76
2022/12/05 13:46:17;;;;;;;6.83;5.50;;;16.50;99.90;;;;;;5019341;28;20275;-76
2022/12/05 13:48:48;;;;;;;8.87;6.00;;;16.50;99.90;;;;;;5030068;28;20197;-76